< < Back
Terminal Aerodrome Forecast


Current Version              Previous Versions:   1  2  3  4  5  6  7  8  9  

Terminal Aerodrome Forecast

176
FTUS44 KOHX 271100
TAFCSV
TAF
KCSV 271123Z 2712/2812 VRB04KT P6SM SCT006 OVC014
      TEMPO 2712/2714 1SM BR BKN004 OVC007
     FM271600 23006KT P6SM SCT040 BKN250
      TEMPO 2722/2802 3SM TSRA BR BKN010CB OVC015
     FM280200 20003KT 4SM BR BKN035=

Latest METAR

024
SAUS70 KWBC 271600 RRD
MTRCSV
METAR KCSV 271553Z AUTO 24005KT 10SM FEW022 BKN031 23/17 A3027 RMK AO2
SLP232 T02330167


USA.gov is the U.S. government's official web portal to all federal, state and local government web resources and services.